Amanda, OH

12:00 PM EST on December 22, 2014 (GMT -0500)
Pickaway-Fairfield Line | Change Station
CLOSE
Current Station
Personal Weather Station
Location: Ashville, OH
Elevation: 815 ft
Nearby Weather Stations

Elev 815 ft 39.71 °N, 82.84 °W | Updated 6 minutes ago

Overcast
Overcast
42.1 °F
Feels Like 40 °F
N
3.7
Wind Variable Wind from ESE

Today
High -- | Low -- °F
--% Chance of Precip.
Yesterday
High -- | Low -- °F
Precip. -- in
7:48 AM 5:10 PM
New Moon, 1% visible
Pressure 30.03 in
Visibility 7.0 miles
Clouds Scattered Clouds 4400 ft
Mostly Cloudy 6000 ft
Windchill 40 °F
Dew Point 35 °F
Humidity 75%
Rainfall 0.00 in
Snow Depth Not available.
UV 1 out of 12
Pollen .10 out of 12
Air Quality Not available.
Flu Activity Not available.
METAR KLHQ 221653Z AUTO 13007KT 7SM SCT044 BKN060 12/00 A3002 RMK AO2 PRESFR SLP169 T01220000

More Conditions Fewer Conditions

Pressure 30.03 in
Visibility 7.0 miles
Clouds Scattered Clouds 4400 ft
Mostly Cloudy 6000 ft
Windchill 40 °F
Dew Point 35 °F
Humidity 75%
Rainfall 0.00 in
Snow Depth Not available.
UV 1 out of 12
Pollen .10 out of 12
Air Quality Not available.
Flu Activity Not available.
METAR KLHQ 221653Z AUTO 13007KT 7SM SCT044 BKN060 12/00 A3002 RMK AO2 PRESFR SLP169 T01220000

More Conditions Fewer Conditions

10-Day Weather Forecast

Almanac

Astronomy

Dec. 22, 2014 Rise Set
Actual Time
Civil Twilight
Nautical Twilight
Astronomical Twilight
Moon
Length of Visible Light
Length of Day
Tomorrow will be .
, % of the Moon is Illuminated

Today's Extremes

State Highs State Lows

Community

WunderPhotos

Upload Photos

1,779,645 photos uploaded!

WunderBlogs® & News

Nearby

Air Quality

  Air Quality AQ Index Pollutant
Not available.

Snow Depth

Station Depth Elevation

Earthquake Activity

City Distance Mag. Time & Date
Minimum magnitude displayed is 2.5.

Coastal Water Temperatures

Place Temperature

Nearby Weather Stations